sensor_id;sensor_type;location;lat;lon;timestamp;P1;durP1;ratioP1;P2;durP2;ratioP2
55659;SDS011;41534;53.550;9.964;2024-02-28T00:02:13;39.60;;;26.95;;
55659;SDS011;41534;53.550;9.964;2024-02-28T00:05:13;37.47;;;27.27;;
55659;SDS011;41534;53.550;9.964;2024-02-28T00:08:14;40.80;;;27.10;;
55659;SDS011;41534;53.550;9.964;2024-02-28T00:11:14;40.88;;;27.08;;
55659;SDS011;41534;53.550;9.964;2024-02-28T00:14:14;39.50;;;25.73;;
55659;SDS011;41534;53.550;9.964;2024-02-28T00:17:15;40.20;;;27.50;;
55659;SDS011;41534;53.550;9.964;2024-02-28T00:20:15;35.93;;;25.37;;
55659;SDS011;41534;53.550;9.964;2024-02-28T00:23:15;34.42;;;25.20;;
55659;SDS011;41534;53.550;9.964;2024-02-28T00:26:16;34.03;;;24.33;;
55659;SDS011;41534;53.550;9.964;2024-02-28T00:29:16;33.20;;;25.15;;
55659;SDS011;41534;53.550;9.964;2024-02-28T00:32:16;39.17;;;25.77;;
55659;SDS011;41534;53.550;9.964;2024-02-28T00:35:17;38.28;;;25.15;;
55659;SDS011;41534;53.550;9.964;2024-02-28T00:38:17;34.53;;;24.42;;
55659;SDS011;41534;53.550;9.964;2024-02-28T00:41:17;32.60;;;24.35;;
55659;SDS011;41534;53.550;9.964;2024-02-28T00:44:17;34.33;;;24.88;;
55659;SDS011;41534;53.550;9.964;2024-02-28T00:47:18;34.13;;;26.30;;
55659;SDS011;41534;53.550;9.964;2024-02-28T00:50:18;33.25;;;24.65;;
55659;SDS011;41534;53.550;9.964;2024-02-28T00:53:19;31.13;;;24.05;;
55659;SDS011;41534;53.550;9.964;2024-02-28T00:56:20;35.05;;;25.60;;
55659;SDS011;41534;53.550;9.964;2024-02-28T00:59:20;32.85;;;23.80;;
55659;SDS011;41534;53.550;9.964;2024-02-28T01:02:21;29.73;;;23.20;;
55659;SDS011;41534;53.550;9.964;2024-02-28T01:05:21;29.40;;;24.17;;
55659;SDS011;41534;53.550;9.964;2024-02-28T01:08:21;33.40;;;24.48;;
55659;SDS011;41534;53.550;9.964;2024-02-28T01:11:22;34.45;;;25.77;;
55659;SDS011;41534;53.550;9.964;2024-02-28T01:14:22;32.00;;;25.83;;
55659;SDS011;41534;53.550;9.964;2024-02-28T01:17:22;31.00;;;25.17;;
55659;SDS011;41534;53.550;9.964;2024-02-28T01:20:23;32.10;;;24.42;;
55659;SDS011;41534;53.550;9.964;2024-02-28T01:23:23;31.42;;;24.38;;
55659;SDS011;41534;53.550;9.964;2024-02-28T01:26:23;28.95;;;23.45;;
55659;SDS011;41534;53.550;9.964;2024-02-28T01:29:23;30.92;;;24.63;;
55659;SDS011;41534;53.550;9.964;2024-02-28T01:32:24;31.13;;;23.93;;
55659;SDS011;41534;53.550;9.964;2024-02-28T01:35:24;31.38;;;23.75;;
55659;SDS011;41534;53.550;9.964;2024-02-28T01:38:24;30.42;;;22.40;;
55659;SDS011;41534;53.550;9.964;2024-02-28T01:41:25;28.25;;;23.35;;
55659;SDS011;41534;53.550;9.964;2024-02-28T01:44:25;27.95;;;21.88;;
55659;SDS011;41534;53.550;9.964;2024-02-28T01:47:25;27.00;;;22.13;;
55659;SDS011;41534;53.550;9.964;2024-02-28T01:50:26;27.52;;;22.42;;
55659;SDS011;41534;53.550;9.964;2024-02-28T01:53:26;29.25;;;22.80;;
55659;SDS011;41534;53.550;9.964;2024-02-28T01:56:26;27.63;;;22.48;;
55659;SDS011;41534;53.550;9.964;2024-02-28T01:59:27;24.58;;;21.23;;
55659;SDS011;41534;53.550;9.964;2024-02-28T02:02:29;26.35;;;21.95;;
55659;SDS011;41534;53.550;9.964;2024-02-28T02:05:29;26.23;;;21.37;;
55659;SDS011;41534;53.550;9.964;2024-02-28T02:08:30;23.70;;;20.63;;
55659;SDS011;41534;53.550;9.964;2024-02-28T02:11:31;24.50;;;20.15;;
55659;SDS011;41534;53.550;9.964;2024-02-28T02:14:32;26.88;;;20.73;;
55659;SDS011;41534;53.550;9.964;2024-02-28T02:17:32;21.95;;;19.55;;
55659;SDS011;41534;53.550;9.964;2024-02-28T02:20:32;22.95;;;20.30;;
55659;SDS011;41534;53.550;9.964;2024-02-28T02:23:38;25.25;;;19.20;;
55659;SDS011;41534;53.550;9.964;2024-02-28T02:26:38;24.93;;;19.83;;
55659;SDS011;41534;53.550;9.964;2024-02-28T02:29:38;21.63;;;18.07;;
55659;SDS011;41534;53.550;9.964;2024-02-28T02:32:39;23.20;;;19.35;;
55659;SDS011;41534;53.550;9.964;2024-02-28T02:35:39;22.88;;;18.88;;
55659;SDS011;41534;53.550;9.964;2024-02-28T02:38:39;23.95;;;19.35;;
55659;SDS011;41534;53.550;9.964;2024-02-28T02:41:40;26.38;;;19.88;;
55659;SDS011;41534;53.550;9.964;2024-02-28T02:44:40;26.17;;;20.35;;
55659;SDS011;41534;53.550;9.964;2024-02-28T02:47:40;21.98;;;18.48;;
55659;SDS011;41534;53.550;9.964;2024-02-28T02:50:40;21.88;;;19.40;;
55659;SDS011;41534;53.550;9.964;2024-02-28T02:53:41;20.42;;;18.30;;
55659;SDS011;41534;53.550;9.964;2024-02-28T02:56:41;20.88;;;18.17;;
55659;SDS011;41534;53.550;9.964;2024-02-28T02:59:42;22.67;;;18.52;;
55659;SDS011;41534;53.550;9.964;2024-02-28T03:02:42;18.25;;;16.35;;
55659;SDS011;41534;53.550;9.964;2024-02-28T03:05:42;17.00;;;15.40;;
55659;SDS011;41534;53.550;9.964;2024-02-28T03:08:43;17.60;;;15.15;;
55659;SDS011;41534;53.550;9.964;2024-02-28T03:11:43;17.88;;;15.02;;
55659;SDS011;41534;53.550;9.964;2024-02-28T03:14:43;15.80;;;14.30;;
55659;SDS011;41534;53.550;9.964;2024-02-28T03:17:46;19.15;;;14.30;;
55659;SDS011;41534;53.550;9.964;2024-02-28T03:20:46;15.77;;;14.27;;
55659;SDS011;41534;53.550;9.964;2024-02-28T03:23:46;14.82;;;13.43;;
55659;SDS011;41534;53.550;9.964;2024-02-28T03:26:47;16.17;;;13.23;;
55659;SDS011;41534;53.550;9.964;2024-02-28T03:29:47;14.68;;;13.35;;
55659;SDS011;41534;53.550;9.964;2024-02-28T03:32:48;13.63;;;12.43;;
55659;SDS011;41534;53.550;9.964;2024-02-28T03:35:48;13.10;;;12.00;;
55659;SDS011;41534;53.550;9.964;2024-02-28T03:38:48;13.02;;;11.82;;
55659;SDS011;41534;53.550;9.964;2024-02-28T03:41:49;13.43;;;12.13;;
55659;SDS011;41534;53.550;9.964;2024-02-28T03:44:49;12.23;;;11.13;;
55659;SDS011;41534;53.550;9.964;2024-02-28T03:47:49;12.13;;;11.05;;
55659;SDS011;41534;53.550;9.964;2024-02-28T03:50:50;12.43;;;11.23;;
55659;SDS011;41534;53.550;9.964;2024-02-28T03:53:50;11.57;;;10.57;;
55659;SDS011;41534;53.550;9.964;2024-02-28T03:56:51;11.43;;;10.43;;
55659;SDS011;41534;53.550;9.964;2024-02-28T03:59:51;11.68;;;10.57;;
55659;SDS011;41534;53.550;9.964;2024-02-28T04:02:51;11.25;;;10.32;;
55659;SDS011;41534;53.550;9.964;2024-02-28T04:05:52;10.57;;;9.73;;
55659;SDS011;41534;53.550;9.964;2024-02-28T04:08:52;11.07;;;10.13;;
55659;SDS011;41534;53.550;9.964;2024-02-28T04:11:52;10.38;;;9.38;;
55659;SDS011;41534;53.550;9.964;2024-02-28T04:14:53;10.80;;;9.80;;
55659;SDS011;41534;53.550;9.964;2024-02-28T04:17:53;10.57;;;9.68;;
55659;SDS011;41534;53.550;9.964;2024-02-28T04:20:53;9.70;;;8.88;;
55659;SDS011;41534;53.550;9.964;2024-02-28T04:23:54;9.85;;;9.05;;
55659;SDS011;41534;53.550;9.964;2024-02-28T04:26:54;9.55;;;8.80;;
55659;SDS011;41534;53.550;9.964;2024-02-28T04:29:54;9.70;;;8.90;;
55659;SDS011;41534;53.550;9.964;2024-02-28T04:32:54;9.07;;;8.27;;
55659;SDS011;41534;53.550;9.964;2024-02-28T04:35:55;9.10;;;8.40;;
55659;SDS011;41534;53.550;9.964;2024-02-28T04:38:55;8.85;;;8.15;;
55659;SDS011;41534;53.550;9.964;2024-02-28T04:41:55;9.00;;;8.30;;
55659;SDS011;41534;53.550;9.964;2024-02-28T04:44:55;8.80;;;8.10;;
55659;SDS011;41534;53.550;9.964;2024-02-28T04:47:56;9.02;;;8.27;;
55659;SDS011;41534;53.550;9.964;2024-02-28T04:50:56;8.50;;;7.90;;
55659;SDS011;41534;53.550;9.964;2024-02-28T04:53:56;8.13;;;7.32;;
55659;SDS011;41534;53.550;9.964;2024-02-28T04:56:56;7.95;;;7.35;;
55659;SDS011;41534;53.550;9.964;2024-02-28T04:59:57;8.18;;;7.57;;
55659;SDS011;41534;53.550;9.964;2024-02-28T05:02:57;8.30;;;7.70;;
55659;SDS011;41534;53.550;9.964;2024-02-28T05:05:57;8.55;;;7.75;;
55659;SDS011;41534;53.550;9.964;2024-02-28T05:08:58;7.85;;;7.25;;
55659;SDS011;41534;53.550;9.964;2024-02-28T05:11:58;8.45;;;7.85;;
55659;SDS011;41534;53.550;9.964;2024-02-28T05:14:58;7.85;;;7.25;;
55659;SDS011;41534;53.550;9.964;2024-02-28T05:17:58;8.40;;;7.60;;
55659;SDS011;41534;53.550;9.964;2024-02-28T05:21:00;8.73;;;8.00;;
55659;SDS011;41534;53.550;9.964;2024-02-28T05:24:00;8.20;;;7.60;;
55659;SDS011;41534;53.550;9.964;2024-02-28T05:27:00;8.52;;;7.75;;
55659;SDS011;41534;53.550;9.964;2024-02-28T05:30:01;8.15;;;7.55;;
55659;SDS011;41534;53.550;9.964;2024-02-28T05:33:01;7.20;;;6.70;;
55659;SDS011;41534;53.550;9.964;2024-02-28T05:36:02;8.30;;;7.70;;
55659;SDS011;41534;53.550;9.964;2024-02-28T05:39:02;9.85;;;7.28;;
55659;SDS011;41534;53.550;9.964;2024-02-28T05:42:03;7.63;;;7.03;;
55659;SDS011;41534;53.550;9.964;2024-02-28T05:45:03;7.72;;;7.03;;
55659;SDS011;41534;53.550;9.964;2024-02-28T05:48:04;7.97;;;7.38;;
55659;SDS011;41534;53.550;9.964;2024-02-28T05:51:05;7.97;;;7.35;;
55659;SDS011;41534;53.550;9.964;2024-02-28T05:54:05;7.80;;;7.10;;
55659;SDS011;41534;53.550;9.964;2024-02-28T05:57:05;7.63;;;7.03;;
55659;SDS011;41534;53.550;9.964;2024-02-28T06:00:06;8.45;;;7.75;;
55659;SDS011;41534;53.550;9.964;2024-02-28T06:03:06;7.63;;;6.93;;
55659;SDS011;41534;53.550;9.964;2024-02-28T06:06:07;7.22;;;6.72;;
55659;SDS011;41534;53.550;9.964;2024-02-28T06:09:07;7.97;;;6.65;;
55659;SDS011;41534;53.550;9.964;2024-02-28T06:12:07;7.15;;;6.55;;
55659;SDS011;41534;53.550;9.964;2024-02-28T06:15:08;6.40;;;5.90;;
55659;SDS011;41534;53.550;9.964;2024-02-28T06:18:08;6.25;;;5.85;;
55659;SDS011;41534;53.550;9.964;2024-02-28T06:21:08;5.90;;;5.50;;
55659;SDS011;41534;53.550;9.964;2024-02-28T06:24:09;6.05;;;5.55;;
55659;SDS011;41534;53.550;9.964;2024-02-28T06:27:09;5.40;;;5.03;;
55659;SDS011;41534;53.550;9.964;2024-02-28T06:30:09;6.10;;;5.60;;
55659;SDS011;41534;53.550;9.964;2024-02-28T06:33:10;5.70;;;5.20;;
55659;SDS011;41534;53.550;9.964;2024-02-28T06:36:11;5.45;;;5.05;;
55659;SDS011;41534;53.550;9.964;2024-02-28T06:39:11;5.57;;;5.13;;
55659;SDS011;41534;53.550;9.964;2024-02-28T06:42:11;4.80;;;4.43;;
55659;SDS011;41534;53.550;9.964;2024-02-28T06:45:12;4.93;;;4.63;;
55659;SDS011;41534;53.550;9.964;2024-02-28T06:48:12;5.07;;;4.68;;
55659;SDS011;41534;53.550;9.964;2024-02-28T06:51:12;4.80;;;4.50;;
55659;SDS011;41534;53.550;9.964;2024-02-28T06:54:12;4.63;;;4.22;;
55659;SDS011;41534;53.550;9.964;2024-02-28T06:57:13;4.75;;;4.38;;
55659;SDS011;41534;53.550;9.964;2024-02-28T07:00:13;4.47;;;4.18;;
55659;SDS011;41534;53.550;9.964;2024-02-28T07:03:13;4.88;;;4.47;;
55659;SDS011;41534;53.550;9.964;2024-02-28T07:06:14;4.80;;;4.40;;
55659;SDS011;41534;53.550;9.964;2024-02-28T07:09:14;4.50;;;4.20;;
55659;SDS011;41534;53.550;9.964;2024-02-28T07:12:14;4.45;;;4.05;;
55659;SDS011;41534;53.550;9.964;2024-02-28T07:15:14;4.72;;;4.32;;
55659;SDS011;41534;53.550;9.964;2024-02-28T07:18:15;4.57;;;4.28;;
55659;SDS011;41534;53.550;9.964;2024-02-28T07:21:16;4.65;;;4.25;;
55659;SDS011;41534;53.550;9.964;2024-02-28T07:24:16;4.65;;;4.25;;
55659;SDS011;41534;53.550;9.964;2024-02-28T07:27:16;5.53;;;4.18;;
55659;SDS011;41534;53.550;9.964;2024-02-28T07:30:17;4.60;;;4.00;;
55659;SDS011;41534;53.550;9.964;2024-02-28T07:33:17;4.15;;;3.85;;
55659;SDS011;41534;53.550;9.964;2024-02-28T07:36:17;4.70;;;4.30;;
55659;SDS011;41534;53.550;9.964;2024-02-28T07:39:18;4.70;;;4.13;;
55659;SDS011;41534;53.550;9.964;2024-02-28T07:42:18;4.65;;;4.22;;
55659;SDS011;41534;53.550;9.964;2024-02-28T07:45:18;5.00;;;4.47;;
55659;SDS011;41534;53.550;9.964;2024-02-28T07:48:18;4.55;;;4.20;;
55659;SDS011;41534;53.550;9.964;2024-02-28T07:51:19;4.60;;;4.30;;
55659;SDS011;41534;53.550;9.964;2024-02-28T07:54:19;4.50;;;4.03;;
55659;SDS011;41534;53.550;9.964;2024-02-28T07:57:19;4.53;;;4.18;;
55659;SDS011;41534;53.550;9.964;2024-02-28T08:00:20;4.72;;;4.40;;
55659;SDS011;41534;53.550;9.964;2024-02-28T08:03:20;5.30;;;4.80;;
55659;SDS011;41534;53.550;9.964;2024-02-28T08:06:20;8.45;;;4.85;;
55659;SDS011;41534;53.550;9.964;2024-02-28T08:09:21;5.63;;;5.18;;
55659;SDS011;41534;53.550;9.964;2024-02-28T08:12:21;6.50;;;5.40;;
55659;SDS011;41534;53.550;9.964;2024-02-28T08:15:21;6.15;;;5.65;;
55659;SDS011;41534;53.550;9.964;2024-02-28T08:18:21;6.13;;;5.50;;
55659;SDS011;41534;53.550;9.964;2024-02-28T08:21:22;5.90;;;5.40;;
55659;SDS011;41534;53.550;9.964;2024-02-28T08:24:22;6.15;;;5.75;;
55659;SDS011;41534;53.550;9.964;2024-02-28T08:27:22;6.78;;;6.28;;
55659;SDS011;41534;53.550;9.964;2024-02-28T08:30:23;6.60;;;6.10;;
55659;SDS011;41534;53.550;9.964;2024-02-28T08:33:23;6.70;;;4.50;;
55659;SDS011;41534;53.550;9.964;2024-02-28T08:36:23;5.53;;;2.97;;
55659;SDS011;41534;53.550;9.964;2024-02-28T08:39:24;2.55;;;2.33;;
55659;SDS011;41534;53.550;9.964;2024-02-28T08:42:24;2.50;;;2.30;;
55659;SDS011;41534;53.550;9.964;2024-02-28T08:45:25;2.53;;;2.33;;
55659;SDS011;41534;53.550;9.964;2024-02-28T08:48:25;2.08;;;1.88;;
55659;SDS011;41534;53.550;9.964;2024-02-28T08:51:26;1.98;;;1.77;;
55659;SDS011;41534;53.550;9.964;2024-02-28T08:54:26;2.03;;;1.42;;
55659;SDS011;41534;53.550;9.964;2024-02-28T08:57:26;2.55;;;1.45;;
55659;SDS011;41534;53.550;9.964;2024-02-28T09:00:26;1.60;;;1.30;;
55659;SDS011;41534;53.550;9.964;2024-02-28T09:03:27;2.47;;;1.40;;
55659;SDS011;41534;53.550;9.964;2024-02-28T09:06:27;1.00;;;0.85;;
55659;SDS011;41534;53.550;9.964;2024-02-28T09:09:27;1.40;;;1.30;;
55659;SDS011;41534;53.550;9.964;2024-02-28T09:12:28;1.58;;;0.90;;
55659;SDS011;41534;53.550;9.964;2024-02-28T09:15:28;1.30;;;1.20;;
55659;SDS011;41534;53.550;9.964;2024-02-28T09:18:28;1.73;;;1.10;;
55659;SDS011;41534;53.550;9.964;2024-02-28T09:21:28;2.15;;;1.08;;
55659;SDS011;41534;53.550;9.964;2024-02-28T09:24:29;1.30;;;1.20;;
55659;SDS011;41534;53.550;9.964;2024-02-28T09:27:29;0.88;;;0.88;;
55659;SDS011;41534;53.550;9.964;2024-02-28T09:30:30;1.23;;;1.00;;
55659;SDS011;41534;53.550;9.964;2024-02-28T09:33:31;1.10;;;1.00;;
55659;SDS011;41534;53.550;9.964;2024-02-28T09:36:31;2.15;;;0.90;;
55659;SDS011;41534;53.550;9.964;2024-02-28T09:39:31;1.27;;;1.05;;
55659;SDS011;41534;53.550;9.964;2024-02-28T09:42:32;1.30;;;0.93;;
55659;SDS011;41534;53.550;9.964;2024-02-28T09:45:32;1.58;;;0.90;;
55659;SDS011;41534;53.550;9.964;2024-02-28T09:48:33;1.52;;;1.00;;
55659;SDS011;41534;53.550;9.964;2024-02-28T09:51:35;1.52;;;1.00;;
55659;SDS011;41534;53.550;9.964;2024-02-28T09:54:36;0.80;;;0.80;;
55659;SDS011;41534;53.550;9.964;2024-02-28T09:57:36;2.00;;;1.00;;
55659;SDS011;41534;53.550;9.964;2024-02-28T10:00:37;1.60;;;1.00;;
55659;SDS011;41534;53.550;9.964;2024-02-28T10:03:38;1.00;;;0.82;;
55659;SDS011;41534;53.550;9.964;2024-02-28T10:06:40;1.20;;;0.85;;
55659;SDS011;41534;53.550;9.964;2024-02-28T10:09:43;1.00;;;1.00;;
55659;SDS011;41534;53.550;9.964;2024-02-28T10:12:43;1.05;;;0.95;;
55659;SDS011;41534;53.550;9.964;2024-02-28T10:15:44;1.33;;;1.10;;
55659;SDS011;41534;53.550;9.964;2024-02-28T10:18:45;1.25;;;1.15;;
55659;SDS011;41534;53.550;9.964;2024-02-28T10:21:46;1.98;;;1.08;;
55659;SDS011;41534;53.550;9.964;2024-02-28T10:24:46;1.60;;;1.50;;
55659;SDS011;41534;53.550;9.964;2024-02-28T10:27:46;1.88;;;1.50;;
55659;SDS011;41534;53.550;9.964;2024-02-28T10:30:47;2.25;;;2.05;;
55659;SDS011;41534;53.550;9.964;2024-02-28T10:33:47;2.85;;;2.20;;
55659;SDS011;41534;53.550;9.964;2024-02-28T10:36:47;3.60;;;2.08;;
55659;SDS011;41534;53.550;9.964;2024-02-28T10:39:50;2.78;;;2.40;;
55659;SDS011;41534;53.550;9.964;2024-02-28T10:42:52;3.72;;;3.40;;
55659;SDS011;41534;53.550;9.964;2024-02-28T10:45:53;4.47;;;3.42;;
55659;SDS011;41534;53.550;9.964;2024-02-28T10:48:57;5.32;;;3.42;;
55659;SDS011;41534;53.550;9.964;2024-02-28T10:51:57;5.03;;;4.00;;
55659;SDS011;41534;53.550;9.964;2024-02-28T10:54:59;7.13;;;4.63;;
55659;SDS011;41534;53.550;9.964;2024-02-28T10:58:03;4.93;;;4.53;;
55659;SDS011;41534;53.550;9.964;2024-02-28T11:01:06;4.63;;;4.22;;
55659;SDS011;41534;53.550;9.964;2024-02-28T11:04:07;4.75;;;4.35;;
55659;SDS011;41534;53.550;9.964;2024-02-28T11:07:08;5.15;;;4.43;;
55659;SDS011;41534;53.550;9.964;2024-02-28T11:10:09;7.35;;;4.80;;
55659;SDS011;41534;53.550;9.964;2024-02-28T11:13:10;6.50;;;5.15;;
55659;SDS011;41534;53.550;9.964;2024-02-28T11:19:32;5.30;;;4.82;;
55659;SDS011;41534;53.550;9.964;2024-02-28T11:22:33;5.22;;;4.50;;
55659;SDS011;41534;53.550;9.964;2024-02-28T11:25:33;6.70;;;5.22;;
55659;SDS011;41534;53.550;9.964;2024-02-28T11:28:33;7.97;;;5.05;;
55659;SDS011;41534;53.550;9.964;2024-02-28T11:31:34;5.82;;;5.30;;
55659;SDS011;41534;53.550;9.964;2024-02-28T11:34:34;5.77;;;5.30;;
55659;SDS011;41534;53.550;9.964;2024-02-28T11:37:34;7.33;;;5.73;;
55659;SDS011;41534;53.550;9.964;2024-02-28T11:40:35;6.88;;;6.15;;
55659;SDS011;41534;53.550;9.964;2024-02-28T11:43:35;8.15;;;7.47;;
55659;SDS011;41534;53.550;9.964;2024-02-28T11:46:35;7.40;;;6.80;;
55659;SDS011;41534;53.550;9.964;2024-02-28T11:49:38;15.85;;;7.60;;
55659;SDS011;41534;53.550;9.964;2024-02-28T11:52:39;8.05;;;7.07;;
55659;SDS011;41534;53.550;9.964;2024-02-28T11:55:40;8.07;;;7.38;;
55659;SDS011;41534;53.550;9.964;2024-02-28T11:58:48;8.30;;;7.37;;
55659;SDS011;41534;53.550;9.964;2024-02-28T12:01:49;8.18;;;7.47;;
55659;SDS011;41534;53.550;9.964;2024-02-28T12:04:50;8.50;;;7.80;;
55659;SDS011;41534;53.550;9.964;2024-02-28T12:07:50;9.40;;;7.68;;
55659;SDS011;41534;53.550;9.964;2024-02-28T12:10:50;8.10;;;7.40;;
55659;SDS011;41534;53.550;9.964;2024-02-28T12:13:54;9.90;;;8.10;;
55659;SDS011;41534;53.550;9.964;2024-02-28T12:16:55;8.37;;;7.77;;
55659;SDS011;41534;53.550;9.964;2024-02-28T12:20:00;8.63;;;7.82;;
55659;SDS011;41534;53.550;9.964;2024-02-28T12:23:01;8.40;;;7.78;;
55659;SDS011;41534;53.550;9.964;2024-02-28T12:26:01;8.38;;;7.68;;
55659;SDS011;41534;53.550;9.964;2024-02-28T12:29:01;8.48;;;7.53;;
55659;SDS011;41534;53.550;9.964;2024-02-28T12:32:02;8.05;;;7.35;;
55659;SDS011;41534;53.550;9.964;2024-02-28T12:35:02;8.52;;;7.68;;
55659;SDS011;41534;53.550;9.964;2024-02-28T12:38:03;8.48;;;7.78;;
55659;SDS011;41534;53.550;9.964;2024-02-28T12:41:03;7.75;;;7.13;;
55659;SDS011;41534;53.550;9.964;2024-02-28T12:44:05;8.88;;;7.88;;
55659;SDS011;41534;53.550;9.964;2024-02-28T12:47:06;8.82;;;8.05;;
55659;SDS011;41534;53.550;9.964;2024-02-28T12:50:06;7.38;;;6.88;;
55659;SDS011;41534;53.550;9.964;2024-02-28T12:53:07;8.40;;;7.70;;
55659;SDS011;41534;53.550;9.964;2024-02-28T12:56:07;9.32;;;8.10;;
55659;SDS011;41534;53.550;9.964;2024-02-28T12:59:07;9.30;;;8.50;;
55659;SDS011;41534;53.550;9.964;2024-02-28T13:02:08;9.02;;;8.32;;
55659;SDS011;41534;53.550;9.964;2024-02-28T13:05:09;9.15;;;8.45;;
55659;SDS011;41534;53.550;9.964;2024-02-28T13:08:11;9.35;;;8.20;;
55659;SDS011;41534;53.550;9.964;2024-02-28T13:11:11;10.35;;;8.88;;
55659;SDS011;41534;53.550;9.964;2024-02-28T13:14:12;9.75;;;8.95;;
55659;SDS011;41534;53.550;9.964;2024-02-28T13:17:12;9.52;;;8.73;;
55659;SDS011;41534;53.550;9.964;2024-02-28T13:20:12;10.20;;;9.30;;
55659;SDS011;41534;53.550;9.964;2024-02-28T13:23:13;9.23;;;8.55;;
55659;SDS011;41534;53.550;9.964;2024-02-28T13:26:13;9.63;;;8.73;;
55659;SDS011;41534;53.550;9.964;2024-02-28T13:29:13;9.75;;;8.77;;
55659;SDS011;41534;53.550;9.964;2024-02-28T13:32:13;9.40;;;8.60;;
55659;SDS011;41534;53.550;9.964;2024-02-28T13:35:14;9.90;;;9.10;;
55659;SDS011;41534;53.550;9.964;2024-02-28T13:38:14;9.23;;;8.52;;
55659;SDS011;41534;53.550;9.964;2024-02-28T13:41:14;9.68;;;8.73;;
55659;SDS011;41534;53.550;9.964;2024-02-28T13:44:15;9.98;;;9.18;;
55659;SDS011;41534;53.550;9.964;2024-02-28T13:47:15;9.53;;;8.50;;
55659;SDS011;41534;53.550;9.964;2024-02-28T13:50:15;9.85;;;8.95;;
55659;SDS011;41534;53.550;9.964;2024-02-28T13:53:16;10.02;;;8.80;;
55659;SDS011;41534;53.550;9.964;2024-02-28T13:56:16;9.07;;;8.27;;
55659;SDS011;41534;53.550;9.964;2024-02-28T13:59:16;9.25;;;8.23;;
55659;SDS011;41534;53.550;9.964;2024-02-28T14:02:16;8.83;;;6.87;;
55659;SDS011;41534;53.550;9.964;2024-02-28T14:05:17;5.88;;;5.35;;
55659;SDS011;41534;53.550;9.964;2024-02-28T14:08:17;4.97;;;4.57;;
55659;SDS011;41534;53.550;9.964;2024-02-28T14:11:18;6.22;;;4.70;;
55659;SDS011;41534;53.550;9.964;2024-02-28T14:14:18;7.68;;;4.18;;
55659;SDS011;41534;53.550;9.964;2024-02-28T14:17:18;4.05;;;3.58;;
55659;SDS011;41534;53.550;9.964;2024-02-28T14:20:18;4.03;;;3.72;;
55659;SDS011;41534;53.550;9.964;2024-02-28T14:23:19;6.53;;;3.97;;
55659;SDS011;41534;53.550;9.964;2024-02-28T14:26:19;5.13;;;3.97;;
55659;SDS011;41534;53.550;9.964;2024-02-28T14:29:19;5.40;;;4.28;;
55659;SDS011;41534;53.550;9.964;2024-02-28T14:32:19;4.22;;;3.92;;
55659;SDS011;41534;53.550;9.964;2024-02-28T14:35:20;4.43;;;4.07;;
55659;SDS011;41534;53.550;9.964;2024-02-28T14:38:20;4.22;;;3.83;;
55659;SDS011;41534;53.550;9.964;2024-02-28T14:41:20;4.93;;;4.20;;
55659;SDS011;41534;53.550;9.964;2024-02-28T14:44:21;4.88;;;4.30;;
55659;SDS011;41534;53.550;9.964;2024-02-28T14:47:21;4.65;;;4.28;;
55659;SDS011;41534;53.550;9.964;2024-02-28T14:50:21;5.53;;;4.50;;
55659;SDS011;41534;53.550;9.964;2024-02-28T14:53:21;4.85;;;4.45;;
55659;SDS011;41534;53.550;9.964;2024-02-28T14:56:22;5.38;;;4.75;;
55659;SDS011;41534;53.550;9.964;2024-02-28T14:59:22;5.97;;;4.57;;
55659;SDS011;41534;53.550;9.964;2024-02-28T15:02:22;4.33;;;3.93;;
55659;SDS011;41534;53.550;9.964;2024-02-28T15:05:23;5.88;;;4.13;;
55659;SDS011;41534;53.550;9.964;2024-02-28T15:08:23;4.60;;;4.20;;
55659;SDS011;41534;53.550;9.964;2024-02-28T15:11:23;7.40;;;5.00;;
55659;SDS011;41534;53.550;9.964;2024-02-28T15:14:23;4.60;;;4.20;;
55659;SDS011;41534;53.550;9.964;2024-02-28T15:17:24;6.72;;;4.57;;
55659;SDS011;41534;53.550;9.964;2024-02-28T15:20:24;26.77;;;5.70;;
55659;SDS011;41534;53.550;9.964;2024-02-28T15:23:24;5.97;;;4.47;;
55659;SDS011;41534;53.550;9.964;2024-02-28T15:26:25;5.72;;;4.78;;
55659;SDS011;41534;53.550;9.964;2024-02-28T15:29:25;4.85;;;4.45;;
55659;SDS011;41534;53.550;9.964;2024-02-28T15:32:25;6.07;;;5.07;;
55659;SDS011;41534;53.550;9.964;2024-02-28T15:35:25;4.87;;;4.53;;
55659;SDS011;41534;53.550;9.964;2024-02-28T15:38:26;10.13;;;4.50;;
55659;SDS011;41534;53.550;9.964;2024-02-28T15:41:26;10.67;;;5.30;;
55659;SDS011;41534;53.550;9.964;2024-02-28T15:44:26;5.63;;;5.22;;
55659;SDS011;41534;53.550;9.964;2024-02-28T15:47:26;6.30;;;5.68;;
55659;SDS011;41534;53.550;9.964;2024-02-28T15:50:27;6.88;;;6.38;;
55659;SDS011;41534;53.550;9.964;2024-02-28T15:53:27;9.90;;;7.25;;
55659;SDS011;41534;53.550;9.964;2024-02-28T15:56:27;7.40;;;6.70;;
55659;SDS011;41534;53.550;9.964;2024-02-28T15:59:28;8.68;;;7.88;;
55659;SDS011;41534;53.550;9.964;2024-02-28T16:02:28;9.30;;;8.50;;
55659;SDS011;41534;53.550;9.964;2024-02-28T16:05:28;9.55;;;8.73;;
55659;SDS011;41534;53.550;9.964;2024-02-28T16:08:29;9.73;;;8.82;;
55659;SDS011;41534;53.550;9.964;2024-02-28T16:11:29;9.57;;;8.68;;
55659;SDS011;41534;53.550;9.964;2024-02-28T16:14:29;10.35;;;9.18;;
55659;SDS011;41534;53.550;9.964;2024-02-28T16:17:30;9.90;;;8.98;;
55659;SDS011;41534;53.550;9.964;2024-02-28T16:20:30;10.52;;;9.50;;
55659;SDS011;41534;53.550;9.964;2024-02-28T16:23:31;11.40;;;10.30;;
55659;SDS011;41534;53.550;9.964;2024-02-28T16:26:32;11.50;;;10.40;;
55659;SDS011;41534;53.550;9.964;2024-02-28T16:29:32;11.25;;;10.25;;
55659;SDS011;41534;53.550;9.964;2024-02-28T16:32:32;10.70;;;9.67;;
55659;SDS011;41534;53.550;9.964;2024-02-28T16:35:32;11.52;;;10.52;;
55659;SDS011;41534;53.550;9.964;2024-02-28T16:38:33;11.73;;;10.53;;
55659;SDS011;41534;53.550;9.964;2024-02-28T16:41:33;11.30;;;10.30;;
55659;SDS011;41534;53.550;9.964;2024-02-28T16:44:33;11.75;;;10.50;;
55659;SDS011;41534;53.550;9.964;2024-02-28T16:47:34;12.23;;;11.13;;
55659;SDS011;41534;53.550;9.964;2024-02-28T16:50:34;12.43;;;11.30;;
55659;SDS011;41534;53.550;9.964;2024-02-28T16:53:35;12.23;;;11.02;;
55659;SDS011;41534;53.550;9.964;2024-02-28T16:56:35;12.83;;;11.63;;
55659;SDS011;41534;53.550;9.964;2024-02-28T16:59:35;14.02;;;12.65;;
55659;SDS011;41534;53.550;9.964;2024-02-28T17:02:36;14.27;;;12.83;;
55659;SDS011;41534;53.550;9.964;2024-02-28T17:05:36;24.75;;;13.70;;
55659;SDS011;41534;53.550;9.964;2024-02-28T17:08:36;15.73;;;14.23;;
55659;SDS011;41534;53.550;9.964;2024-02-28T17:11:37;18.87;;;16.73;;
55659;SDS011;41534;53.550;9.964;2024-02-28T17:14:37;18.92;;;15.35;;
55659;SDS011;41534;53.550;9.964;2024-02-28T17:17:37;23.08;;;15.52;;
55659;SDS011;41534;53.550;9.964;2024-02-28T17:20:37;17.17;;;15.30;;
55659;SDS011;41534;53.550;9.964;2024-02-28T17:23:38;17.30;;;15.60;;
55659;SDS011;41534;53.550;9.964;2024-02-28T17:26:38;17.65;;;15.85;;
55659;SDS011;41534;53.550;9.964;2024-02-28T17:29:38;16.88;;;15.15;;
55659;SDS011;41534;53.550;9.964;2024-02-28T17:32:39;18.77;;;16.77;;
55659;SDS011;41534;53.550;9.964;2024-02-28T17:35:39;23.00;;;20.58;;
55659;SDS011;41534;53.550;9.964;2024-02-28T17:38:39;23.45;;;18.63;;
55659;SDS011;41534;53.550;9.964;2024-02-28T17:41:40;19.70;;;17.75;;
55659;SDS011;41534;53.550;9.964;2024-02-28T17:44:47;20.60;;;17.98;;
55659;SDS011;41534;53.550;9.964;2024-02-28T17:47:48;20.77;;;18.63;;
55659;SDS011;41534;53.550;9.964;2024-02-28T17:50:48;19.33;;;17.43;;
55659;SDS011;41534;53.550;9.964;2024-02-28T17:53:48;19.07;;;17.23;;
55659;SDS011;41534;53.550;9.964;2024-02-28T17:56:49;19.38;;;17.38;;
55659;SDS011;41534;53.550;9.964;2024-02-28T17:59:49;19.37;;;17.47;;